Amistad, New Mexico
Current Conditions -  °F | °C
As of 8:53 AM on Thursday 23 Oct 2014 (Local Time) from KDHT Reporting Station
Clear Clear  
Wind Chill: 12°   Ceiling: Unl
Heat Index: 12°   Visibility: 8mi
Dew Point: 11°   Wind: 3mph
Humidity: 93%   Direction: NA
Pressure: 30.16"   Gusts: NA
Location:  35.92°N, 103.16°W
Report Text: KDHT 231453Z AUTO VRB03KT 8SM CLR 12/11 A3016 RMK AO2 SLP181 T01220111 53013
Loading
Personal Weather Stations






























Interactive Weather Map
Tropical Storm Tracking
New forecast layout! Learn more

10-Day Weather Forecast

Advertisements
Track Severe Weather on mobile